sensor_id;sensor_type;location;lat;lon;timestamp;pressure;altitude;pressure_sealevel;temperature;humidity
68508;BME280;55510;49.560;19.090;2023-01-24T00:01:46;98057.81;;;-0.12;100.00
68508;BME280;55510;49.560;19.090;2023-01-24T00:04:47;98057.13;;;-0.15;100.00
68508;BME280;55510;49.560;19.090;2023-01-24T00:07:48;98057.44;;;-0.08;100.00
68508;BME280;55510;49.560;19.090;2023-01-24T00:10:57;98055.19;;;-0.12;100.00
68508;BME280;55510;49.560;19.090;2023-01-24T00:13:58;98048.19;;;-0.12;100.00
68508;BME280;55510;49.560;19.090;2023-01-24T00:16:59;98055.91;;;-0.10;100.00
68508;BME280;55510;49.560;19.090;2023-01-24T00:19:59;98056.44;;;-0.17;100.00
68508;BME280;55510;49.560;19.090;2023-01-24T00:23:00;98057.69;;;-0.11;100.00
68508;BME280;55510;49.560;19.090;2023-01-24T00:26:01;98055.78;;;-0.09;100.00
68508;BME280;55510;49.560;19.090;2023-01-24T00:29:01;98058.50;;;-0.10;100.00
68508;BME280;55510;49.560;19.090;2023-01-24T00:32:02;98059.63;;;-0.13;100.00
68508;BME280;55510;49.560;19.090;2023-01-24T00:35:03;98069.13;;;-0.12;100.00
68508;BME280;55510;49.560;19.090;2023-01-24T00:38:04;98072.81;;;-0.15;100.00
68508;BME280;55510;49.560;19.090;2023-01-24T00:41:05;98070.06;;;-0.23;100.00
68508;BME280;55510;49.560;19.090;2023-01-24T00:44:05;98071.88;;;-0.13;100.00
68508;BME280;55510;49.560;19.090;2023-01-24T00:47:06;98067.16;;;-0.20;100.00
68508;BME280;55510;49.560;19.090;2023-01-24T00:50:07;98070.22;;;-0.15;100.00
68508;BME280;55510;49.560;19.090;2023-01-24T00:53:08;98068.13;;;-0.21;100.00
68508;BME280;55510;49.560;19.090;2023-01-24T00:56:09;98065.25;;;-0.18;100.00
68508;BME280;55510;49.560;19.090;2023-01-24T00:59:09;98073.09;;;-0.18;100.00
68508;BME280;55510;49.560;19.090;2023-01-24T01:02:10;98065.13;;;-0.16;100.00
68508;BME280;55510;49.560;19.090;2023-01-24T01:05:11;98072.66;;;-0.23;100.00
68508;BME280;55510;49.560;19.090;2023-01-24T01:08:12;98076.66;;;-0.19;100.00
68508;BME280;55510;49.560;19.090;2023-01-24T01:11:14;98074.06;;;-0.19;100.00
68508;BME280;55510;49.560;19.090;2023-01-24T01:14:14;98078.31;;;-0.18;100.00
68508;BME280;55510;49.560;19.090;2023-01-24T01:17:15;98069.50;;;-0.17;100.00
68508;BME280;55510;49.560;19.090;2023-01-24T01:20:17;98078.06;;;-0.15;100.00
68508;BME280;55510;49.560;19.090;2023-01-24T01:23:18;98069.78;;;-0.20;100.00
68508;BME280;55510;49.560;19.090;2023-01-24T01:26:20;98080.56;;;-0.13;100.00
68508;BME280;55510;49.560;19.090;2023-01-24T01:29:21;98071.72;;;-0.22;100.00
68508;BME280;55510;49.560;19.090;2023-01-24T01:32:22;98070.63;;;-0.19;100.00
68508;BME280;55510;49.560;19.090;2023-01-24T01:35:23;98071.75;;;-0.12;100.00
68508;BME280;55510;49.560;19.090;2023-01-24T01:38:23;98072.56;;;-0.11;100.00
68508;BME280;55510;49.560;19.090;2023-01-24T01:41:25;98075.03;;;-0.20;100.00
68508;BME280;55510;49.560;19.090;2023-01-24T01:44:29;98075.56;;;-0.26;100.00
68508;BME280;55510;49.560;19.090;2023-01-24T01:47:41;98075.88;;;-0.19;100.00
68508;BME280;55510;49.560;19.090;2023-01-24T01:54:08;98081.63;;;-0.16;100.00
68508;BME280;55510;49.560;19.090;2023-01-24T01:57:21;98085.22;;;-0.17;100.00
68508;BME280;55510;49.560;19.090;2023-01-24T02:00:24;98081.91;;;-0.19;100.00
68508;BME280;55510;49.560;19.090;2023-01-24T02:03:39;98093.06;;;-0.17;100.00
68508;BME280;55510;49.560;19.090;2023-01-24T02:10:00;98087.97;;;-0.18;100.00
68508;BME280;55510;49.560;19.090;2023-01-24T02:13:03;98089.50;;;-0.16;100.00
68508;BME280;55510;49.560;19.090;2023-01-24T02:16:04;98082.22;;;-0.12;100.00
68508;BME280;55510;49.560;19.090;2023-01-24T02:19:06;98076.66;;;-0.19;100.00
68508;BME280;55510;49.560;19.090;2023-01-24T02:22:18;98079.28;;;-0.19;100.00
68508;BME280;55510;49.560;19.090;2023-01-24T02:28:32;98080.25;;;-0.20;100.00
68508;BME280;55510;49.560;19.090;2023-01-24T02:32:01;98078.31;;;-0.18;100.00
68508;BME280;55510;49.560;19.090;2023-01-24T02:35:03;98083.03;;;-0.21;100.00
68508;BME280;55510;49.560;19.090;2023-01-24T02:38:06;98081.34;;;-0.22;100.00
68508;BME280;55510;49.560;19.090;2023-01-24T02:41:11;98079.97;;;-0.17;100.00
68508;BME280;55510;49.560;19.090;2023-01-24T02:44:50;98075.59;;;-0.16;100.00
68508;BME280;55510;49.560;19.090;2023-01-24T02:47:55;98081.63;;;-0.16;100.00
68508;BME280;55510;49.560;19.090;2023-01-24T02:50:56;98086.34;;;-0.09;100.00
68508;BME280;55510;49.560;19.090;2023-01-24T02:54:15;98081.25;;;-0.11;100.00
68508;BME280;55510;49.560;19.090;2023-01-24T02:57:16;98084.94;;;-0.13;100.00
68508;BME280;55510;49.560;19.090;2023-01-24T03:00:37;98089.91;;;-0.10;100.00
68508;BME280;55510;49.560;19.090;2023-01-24T03:03:38;98087.31;;;-0.10;100.00
68508;BME280;55510;49.560;19.090;2023-01-24T03:06:39;98087.97;;;-0.18;100.00
68508;BME280;55510;49.560;19.090;2023-01-24T03:09:40;98093.50;;;-0.11;100.00
68508;BME280;55510;49.560;19.090;2023-01-24T03:12:46;98096.00;;;-0.10;100.00
68508;BME280;55510;49.560;19.090;2023-01-24T03:16:06;98091.56;;;-0.09;100.00
68508;BME280;55510;49.560;19.090;2023-01-24T03:19:25;98095.16;;;-0.10;100.00
68508;BME280;55510;49.560;19.090;2023-01-24T03:22:45;98099.41;;;-0.09;100.00
68508;BME280;55510;49.560;19.090;2023-01-24T03:26:04;98098.72;;;-0.11;100.00
68508;BME280;55510;49.560;19.090;2023-01-24T03:29:23;98097.66;;;-0.09;100.00
68508;BME280;55510;49.560;19.090;2023-01-24T03:32:42;98100.13;;;-0.07;100.00
68508;BME280;55510;49.560;19.090;2023-01-24T03:36:02;98101.78;;;-0.06;100.00
68508;BME280;55510;49.560;19.090;2023-01-24T03:39:06;98109.50;;;-0.05;100.00
68508;BME280;55510;49.560;19.090;2023-01-24T03:42:26;98099.84;;;-0.04;100.00
68508;BME280;55510;49.560;19.090;2023-01-24T03:45:29;98101.78;;;-0.06;100.00
68508;BME280;55510;49.560;19.090;2023-01-24T03:48:31;98098.19;;;-0.05;100.00
68508;BME280;55510;49.560;19.090;2023-01-24T03:51:36;98094.34;;;-0.01;100.00
68508;BME280;55510;49.560;19.090;2023-01-24T03:54:57;98097.91;;;-0.02;100.00
68508;BME280;55510;49.560;19.090;2023-01-24T03:57:58;98100.97;;;-0.07;100.00
68508;BME280;55510;49.560;19.090;2023-01-24T04:00:59;98094.88;;;-0.07;100.00
68508;BME280;55510;49.560;19.090;2023-01-24T04:03:59;98099.56;;;-0.11;100.00
68508;BME280;55510;49.560;19.090;2023-01-24T04:07:00;98101.50;;;-0.13;100.00
68508;BME280;55510;49.560;19.090;2023-01-24T04:10:02;98096.53;;;-0.16;100.00
68508;BME280;55510;49.560;19.090;2023-01-24T04:13:03;98098.19;;;-0.15;100.00
68508;BME280;55510;49.560;19.090;2023-01-24T04:16:06;98099.00;;;-0.15;100.00
68508;BME280;55510;49.560;19.090;2023-01-24T04:19:06;98097.22;;;-0.14;100.00
68508;BME280;55510;49.560;19.090;2023-01-24T04:22:07;98101.75;;;-0.16;100.00
68508;BME280;55510;49.560;19.090;2023-01-24T04:25:09;98096.25;;;-0.13;100.00
68508;BME280;55510;49.560;19.090;2023-01-24T04:28:10;98099.25;;;-0.18;100.00
68508;BME280;55510;49.560;19.090;2023-01-24T04:31:10;98100.91;;;-0.17;100.00
68508;BME280;55510;49.560;19.090;2023-01-24T04:34:11;98096.25;;;-0.13;100.00
68508;BME280;55510;49.560;19.090;2023-01-24T04:37:12;98098.31;;;-0.17;100.00
68508;BME280;55510;49.560;19.090;2023-01-24T04:40:13;98103.97;;;-0.11;100.00
68508;BME280;55510;49.560;19.090;2023-01-24T04:43:15;98103.69;;;-0.08;100.00
68508;BME280;55510;49.560;19.090;2023-01-24T04:46:15;98096.81;;;-0.09;100.00
68508;BME280;55510;49.560;19.090;2023-01-24T04:49:16;98097.22;;;-0.14;100.00
68508;BME280;55510;49.560;19.090;2023-01-24T04:52:17;98095.41;;;-0.13;100.00
68508;BME280;55510;49.560;19.090;2023-01-24T04:55:22;98097.06;;;-0.12;100.00
68508;BME280;55510;49.560;19.090;2023-01-24T04:58:22;98089.91;;;-0.10;100.00
68508;BME280;55510;49.560;19.090;2023-01-24T05:01:23;98091.56;;;-0.09;100.00
68508;BME280;55510;49.560;19.090;2023-01-24T05:04:24;98088.94;;;-0.09;100.00
68508;BME280;55510;49.560;19.090;2023-01-24T05:07:25;98088.13;;;-0.10;100.00
68508;BME280;55510;49.560;19.090;2023-01-24T05:10:25;98099.69;;;-0.12;100.00
68508;BME280;55510;49.560;19.090;2023-01-24T05:13:26;98096.81;;;-0.09;100.00
68508;BME280;55510;49.560;19.090;2023-01-24T05:16:27;98095.41;;;-0.13;100.00
68508;BME280;55510;49.560;19.090;2023-01-24T05:19:27;98097.75;;;-0.10;100.00
68508;BME280;55510;49.560;19.090;2023-01-24T05:22:28;98097.91;;;-0.12;100.00
68508;BME280;55510;49.560;19.090;2023-01-24T05:25:29;98099.69;;;-0.12;100.00
68508;BME280;55510;49.560;19.090;2023-01-24T05:28:30;98106.16;;;-0.17;100.00
68508;BME280;55510;49.560;19.090;2023-01-24T05:31:31;98092.38;;;-0.19;100.00
68508;BME280;55510;49.560;19.090;2023-01-24T05:34:31;98101.34;;;-0.11;100.00
68508;BME280;55510;49.560;19.090;2023-01-24T05:37:32;98099.00;;;-0.15;100.00
68508;BME280;55510;49.560;19.090;2023-01-24T05:40:33;98111.13;;;-0.13;100.00
68508;BME280;55510;49.560;19.090;2023-01-24T05:43:34;98112.50;;;-0.09;100.00
68508;BME280;55510;49.560;19.090;2023-01-24T05:46:35;98116.94;;;-0.10;100.00
68508;BME280;55510;49.560;19.090;2023-01-24T05:49:36;98120.78;;;-0.14;100.00
68508;BME280;55510;49.560;19.090;2023-01-24T05:52:37;98118.97;;;-0.13;100.00
68508;BME280;55510;49.560;19.090;2023-01-24T05:55:38;98121.59;;;-0.13;100.00
68508;BME280;55510;49.560;19.090;2023-01-24T05:58:41;98124.09;;;-0.12;100.00
68508;BME280;55510;49.560;19.090;2023-01-24T06:01:43;98119.66;;;-0.11;100.00
68508;BME280;55510;49.560;19.090;2023-01-24T06:04:43;98127.41;;;-0.10;100.00
68508;BME280;55510;49.560;19.090;2023-01-24T06:07:44;98124.63;;;-0.08;100.00
68508;BME280;55510;49.560;19.090;2023-01-24T06:10:45;98127.25;;;-0.08;100.00
68508;BME280;55510;49.560;19.090;2023-01-24T06:13:46;98128.22;;;-0.09;100.00
68508;BME280;55510;49.560;19.090;2023-01-24T06:16:47;98129.59;;;-0.05;100.00
68508;BME280;55510;49.560;19.090;2023-01-24T06:19:48;98138.69;;;-0.09;100.00
68508;BME280;55510;49.560;19.090;2023-01-24T06:22:57;98139.25;;;-0.06;100.00
68508;BME280;55510;49.560;19.090;2023-01-24T06:25:59;98142.13;;;-0.09;100.00
68508;BME280;55510;49.560;19.090;2023-01-24T06:29:00;98137.59;;;-0.07;100.00
68508;BME280;55510;49.560;19.090;2023-01-24T06:38:45;98145.03;;;-0.02;100.00
68508;BME280;55510;49.560;19.090;2023-01-24T06:41:47;98148.44;;;-0.11;100.00
68508;BME280;55510;49.560;19.090;2023-01-24T06:44:48;98149.72;;;-0.06;100.00
68508;BME280;55510;49.560;19.090;2023-01-24T06:47:49;98140.06;;;-0.05;100.00
68508;BME280;55510;49.560;19.090;2023-01-24T06:50:50;98145.75;;;0.00;100.00
68508;BME280;55510;49.560;19.090;2023-01-24T06:53:50;98149.56;;;-0.04;100.00
68508;BME280;55510;49.560;19.090;2023-01-24T06:56:51;98153.03;;;-0.04;100.00
68508;BME280;55510;49.560;19.090;2023-01-24T06:59:52;98163.63;;;-0.05;99.67
68508;BME280;55510;49.560;19.090;2023-01-24T07:05:59;98162.59;;;0.07;100.00
68508;BME280;55510;49.560;19.090;2023-01-24T07:09:00;98161.38;;;0.11;99.74
68508;BME280;55510;49.560;19.090;2023-01-24T07:12:00;98171.28;;;0.18;99.57
68508;BME280;55510;49.560;19.090;2023-01-24T07:15:01;98173.50;;;0.12;99.06
68508;BME280;55510;49.560;19.090;2023-01-24T07:18:09;98175.44;;;0.20;99.07
68508;BME280;55510;49.560;19.090;2023-01-24T07:21:12;98173.25;;;0.25;98.66
68508;BME280;55510;49.560;19.090;2023-01-24T07:24:15;98168.56;;;0.29;98.07
68508;BME280;55510;49.560;19.090;2023-01-24T07:27:17;98170.22;;;0.30;97.75
68508;BME280;55510;49.560;19.090;2023-01-24T07:30:17;98168.28;;;0.32;97.65
68508;BME280;55510;49.560;19.090;2023-01-24T07:33:18;98175.19;;;0.33;97.78
68508;BME280;55510;49.560;19.090;2023-01-24T07:36:19;98183.19;;;0.41;97.71
68508;BME280;55510;49.560;19.090;2023-01-24T07:39:20;98184.34;;;0.49;97.73
68508;BME280;55510;49.560;19.090;2023-01-24T07:42:20;98185.03;;;0.51;96.84
68508;BME280;55510;49.560;19.090;2023-01-24T07:45:21;98179.81;;;0.51;97.44
68508;BME280;55510;49.560;19.090;2023-01-24T07:48:22;98184.06;;;0.52;96.89
68508;BME280;55510;49.560;19.090;2023-01-24T07:51:22;98186.28;;;0.56;96.32
68508;BME280;55510;49.560;19.090;2023-01-24T07:54:23;98182.97;;;0.64;96.51
68508;BME280;55510;49.560;19.090;2023-01-24T07:57:24;98187.00;;;0.68;96.49
68508;BME280;55510;49.560;19.090;2023-01-24T08:00:24;98194.31;;;0.75;95.86
68508;BME280;55510;49.560;19.090;2023-01-24T08:03:25;98186.03;;;0.79;96.32
68508;BME280;55510;49.560;19.090;2023-01-24T08:06:26;98202.59;;;0.80;95.59
68508;BME280;55510;49.560;19.090;2023-01-24T08:09:26;98200.09;;;0.88;95.57
68508;BME280;55510;49.560;19.090;2023-01-24T08:12:27;98203.69;;;0.87;94.93
68508;BME280;55510;49.560;19.090;2023-01-24T08:15:28;98196.28;;;0.92;94.68
68508;BME280;55510;49.560;19.090;2023-01-24T08:18:28;98202.19;;;0.94;94.38
68508;BME280;55510;49.560;19.090;2023-01-24T08:21:29;98196.28;;;0.92;94.13
68508;BME280;55510;49.560;19.090;2023-01-24T08:24:30;98206.84;;;0.81;93.48
68508;BME280;55510;49.560;19.090;2023-01-24T08:27:31;98208.69;;;0.90;94.20
68508;BME280;55510;49.560;19.090;2023-01-24T08:30:32;98200.97;;;0.98;93.56
68508;BME280;55510;49.560;19.090;2023-01-24T08:33:34;98204.25;;;1.10;93.98
68508;BME280;55510;49.560;19.090;2023-01-24T08:36:38;98210.34;;;1.21;93.23
68508;BME280;55510;49.560;19.090;2023-01-24T08:39:38;98208.94;;;1.26;92.35
68508;BME280;55510;49.560;19.090;2023-01-24T08:42:39;98207.28;;;1.55;92.91
68508;BME280;55510;49.560;19.090;2023-01-24T08:45:40;98216.88;;;1.74;91.55
68508;BME280;55510;49.560;19.090;2023-01-24T08:48:40;98214.41;;;1.72;89.66
68508;BME280;55510;49.560;19.090;2023-01-24T08:51:41;98219.50;;;1.84;90.26
68508;BME280;55510;49.560;19.090;2023-01-24T08:54:42;98225.88;;;1.81;89.01
68508;BME280;55510;49.560;19.090;2023-01-24T08:57:43;98232.91;;;1.81;90.07
68508;BME280;55510;49.560;19.090;2023-01-24T09:00:44;98236.22;;;1.73;89.76
68508;BME280;55510;49.560;19.090;2023-01-24T09:03:44;98234.34;;;1.55;89.57
68508;BME280;55510;49.560;19.090;2023-01-24T09:06:45;98237.94;;;1.54;90.26
68508;BME280;55510;49.560;19.090;2023-01-24T09:09:46;98234.75;;;1.51;90.96
68508;BME280;55510;49.560;19.090;2023-01-24T09:12:46;98243.06;;;1.46;91.29
68508;BME280;55510;49.560;19.090;2023-01-24T09:15:47;98238.50;;;1.38;91.86
68508;BME280;55510;49.560;19.090;2023-01-24T09:18:48;98239.47;;;1.47;92.38
68508;BME280;55510;49.560;19.090;2023-01-24T09:21:51;98240.72;;;1.43;92.99
68508;BME280;55510;49.560;19.090;2023-01-24T09:24:54;98243.88;;;1.47;92.52
68508;BME280;55510;49.560;19.090;2023-01-24T09:27:55;98234.63;;;1.62;93.43
68508;BME280;55510;49.560;19.090;2023-01-24T09:30:56;98235.41;;;1.82;92.96
68508;BME280;55510;49.560;19.090;2023-01-24T09:33:57;98227.25;;;1.76;91.45
68508;BME280;55510;49.560;19.090;2023-01-24T09:36:58;98230.97;;;1.83;92.73
68508;BME280;55510;49.560;19.090;2023-01-24T09:39:59;98233.41;;;1.94;92.87
68508;BME280;55510;49.560;19.090;2023-01-24T09:43:25;98223.66;;;1.86;91.92
68508;BME280;55510;49.560;19.090;2023-01-24T09:46:50;98225.03;;;1.91;92.85
68508;BME280;55510;49.560;19.090;2023-01-24T09:50:03;98225.22;;;2.07;92.58
68508;BME280;55510;49.560;19.090;2023-01-24T09:53:12;98220.44;;;2.30;92.63
68508;BME280;55510;49.560;19.090;2023-01-24T09:56:21;98209.41;;;2.55;90.98
68508;BME280;55510;49.560;19.090;2023-01-24T09:59:42;98214.03;;;2.89;88.50
68508;BME280;55510;49.560;19.090;2023-01-24T10:02:43;98205.53;;;3.13;88.23
68508;BME280;55510;49.560;19.090;2023-01-24T10:05:52;98202.69;;;3.07;87.53
68508;BME280;55510;49.560;19.090;2023-01-24T10:12:12;98201.03;;;2.87;86.52
68508;BME280;55510;49.560;19.090;2023-01-24T10:15:39;98201.63;;;2.81;87.01
68508;BME280;55510;49.560;19.090;2023-01-24T10:25:51;98200.88;;;2.43;87.21
68508;BME280;55510;49.560;19.090;2023-01-24T10:29:06;98199.19;;;2.52;89.05
68508;BME280;55510;49.560;19.090;2023-01-24T10:32:13;98200.47;;;2.66;88.73
68508;BME280;55510;49.560;19.090;2023-01-24T10:35:26;98201.31;;;2.66;89.62
68508;BME280;55510;49.560;19.090;2023-01-24T10:38:29;98194.97;;;2.59;88.98
68508;BME280;55510;49.560;19.090;2023-01-24T10:41:31;98192.84;;;2.44;88.61
68508;BME280;55510;49.560;19.090;2023-01-24T10:44:39;98186.44;;;2.29;90.06
68508;BME280;55510;49.560;19.090;2023-01-24T10:47:45;98187.59;;;2.44;89.45
68508;BME280;55510;49.560;19.090;2023-01-24T10:50:50;98185.06;;;2.53;89.16
68508;BME280;55510;49.560;19.090;2023-01-24T10:53:51;98182.44;;;2.53;88.82
68508;BME280;55510;49.560;19.090;2023-01-24T10:56:55;98181.69;;;2.60;89.12
68508;BME280;55510;49.560;19.090;2023-01-24T11:00:00;98179.22;;;2.59;88.50
68508;BME280;55510;49.560;19.090;2023-01-24T11:03:18;98183.66;;;2.58;88.86
68508;BME280;55510;49.560;19.090;2023-01-24T11:09:34;98177.47;;;2.50;88.81
68508;BME280;55510;49.560;19.090;2023-01-24T11:12:34;98173.28;;;2.57;89.17
68508;BME280;55510;49.560;19.090;2023-01-24T11:15:35;98171.78;;;2.54;89.55
68508;BME280;55510;49.560;19.090;2023-01-24T11:18:36;98170.94;;;2.54;87.88
68508;BME280;55510;49.560;19.090;2023-01-24T11:21:50;98172.69;;;2.45;89.19
68508;BME280;55510;49.560;19.090;2023-01-24T11:25:01;98170.91;;;2.36;89.81
68508;BME280;55510;49.560;19.090;2023-01-24T11:28:02;98169.53;;;2.31;90.13
68508;BME280;55510;49.560;19.090;2023-01-24T11:31:17;98172.38;;;2.20;90.07
68508;BME280;55510;49.560;19.090;2023-01-24T11:41:22;98176.19;;;1.98;90.12
68508;BME280;55510;49.560;19.090;2023-01-24T11:44:47;98158.78;;;1.97;91.20
68508;BME280;55510;49.560;19.090;2023-01-24T11:48:08;98155.97;;;2.08;91.13
68508;BME280;55510;49.560;19.090;2023-01-24T11:55:07;98162.00;;;1.91;91.71
68508;BME280;55510;49.560;19.090;2023-01-24T12:08:39;98154.09;;;2.00;92.91
68508;BME280;55510;49.560;19.090;2023-01-24T12:15:38;98148.00;;;2.00;92.29
68508;BME280;55510;49.560;19.090;2023-01-24T12:22:12;98140.81;;;2.02;91.80
68508;BME280;55510;49.560;19.090;2023-01-24T12:25:25;98142.06;;;1.98;91.73
68508;BME280;55510;49.560;19.090;2023-01-24T12:28:33;98139.16;;;2.01;92.31
68508;BME280;55510;49.560;19.090;2023-01-24T12:31:45;98140.25;;;1.98;92.32
68508;BME280;55510;49.560;19.090;2023-01-24T12:34:55;98136.13;;;1.96;92.10
68508;BME280;55510;49.560;19.090;2023-01-24T12:38:20;98133.47;;;2.06;92.38
68508;BME280;55510;49.560;19.090;2023-01-24T12:41:35;98133.31;;;2.07;92.13
68508;BME280;55510;49.560;19.090;2023-01-24T12:44:47;98131.66;;;2.06;92.47
68508;BME280;55510;49.560;19.090;2023-01-24T12:51:19;98128.25;;;1.96;92.04
68508;BME280;55510;49.560;19.090;2023-01-24T12:54:30;98126.91;;;1.92;92.95
68508;BME280;55510;49.560;19.090;2023-01-24T12:57:45;98124.28;;;1.92;93.08
68508;BME280;55510;49.560;19.090;2023-01-24T13:11:04;98128.06;;;1.79;92.67
68508;BME280;55510;49.560;19.090;2023-01-24T13:14:18;98124.34;;;1.72;93.11
68508;BME280;55510;49.560;19.090;2023-01-24T13:24:05;98124.09;;;1.65;94.32
68508;BME280;55510;49.560;19.090;2023-01-24T13:30:53;98129.66;;;1.52;94.92
68508;BME280;55510;49.560;19.090;2023-01-24T13:34:04;98133.53;;;1.48;95.50
68508;BME280;55510;49.560;19.090;2023-01-24T13:37:31;98136.84;;;1.50;95.25
68508;BME280;55510;49.560;19.090;2023-01-24T13:40:33;98124.13;;;1.55;95.59
68508;BME280;55510;49.560;19.090;2023-01-24T13:52:57;98149.75;;;1.34;95.46
68508;BME280;55510;49.560;19.090;2023-01-24T13:56:03;98155.69;;;1.26;95.78
68508;BME280;55510;49.560;19.090;2023-01-24T13:59:15;98154.44;;;1.30;96.01
68508;BME280;55510;49.560;19.090;2023-01-24T14:02:39;98153.75;;;1.18;96.11
68508;BME280;55510;49.560;19.090;2023-01-24T14:05:50;98159.81;;;1.09;96.90
68508;BME280;55510;49.560;19.090;2023-01-24T14:09:03;98159.81;;;1.09;97.53
68508;BME280;55510;49.560;19.090;2023-01-24T14:12:17;98160.09;;;1.15;96.82
68508;BME280;55510;49.560;19.090;2023-01-24T14:15:29;98163.41;;;1.08;97.49
68508;BME280;55510;49.560;19.090;2023-01-24T14:28:37;98170.31;;;1.09;97.66
68508;BME280;55510;49.560;19.090;2023-01-24T14:31:40;98174.72;;;0.89;98.02
68508;BME280;55510;49.560;19.090;2023-01-24T14:34:45;98178.03;;;0.91;98.53
68508;BME280;55510;49.560;19.090;2023-01-24T14:37:49;98170.31;;;0.79;98.91
68508;BME280;55510;49.560;19.090;2023-01-24T14:40:52;98176.09;;;0.83;99.31
68508;BME280;55510;49.560;19.090;2023-01-24T14:43:53;98182.47;;;0.90;98.72
68508;BME280;55510;49.560;19.090;2023-01-24T14:50:01;98195.97;;;0.76;99.69
68508;BME280;55510;49.560;19.090;2023-01-24T14:53:22;98192.81;;;0.72;99.66
68508;BME280;55510;49.560;19.090;2023-01-24T14:56:24;98184.66;;;0.65;100.00
68508;BME280;55510;49.560;19.090;2023-01-24T14:59:24;98191.41;;;0.68;100.00
68508;BME280;55510;49.560;19.090;2023-01-24T15:02:26;98197.06;;;0.63;100.00
68508;BME280;55510;49.560;19.090;2023-01-24T15:05:30;98196.91;;;0.55;100.00
68508;BME280;55510;49.560;19.090;2023-01-24T15:08:31;98206.69;;;0.53;100.00
68508;BME280;55510;49.560;19.090;2023-01-24T15:11:35;98204.75;;;0.55;100.00
68508;BME280;55510;49.560;19.090;2023-01-24T15:14:36;98204.59;;;0.47;100.00
68508;BME280;55510;49.560;19.090;2023-01-24T15:17:38;98216.16;;;0.44;100.00
68508;BME280;55510;49.560;19.090;2023-01-24T15:20:39;98212.72;;;0.43;100.00
68508;BME280;55510;49.560;19.090;2023-01-24T15:23:39;98214.06;;;0.28;100.00
68508;BME280;55510;49.560;19.090;2023-01-24T15:26:40;98209.09;;;0.25;100.00
68508;BME280;55510;49.560;19.090;2023-01-24T15:29:47;98210.47;;;0.29;100.00
68508;BME280;55510;49.560;19.090;2023-01-24T15:33:01;98221.91;;;0.28;100.00
68508;BME280;55510;49.560;19.090;2023-01-24T15:36:01;98215.53;;;0.21;100.00
68508;BME280;55510;49.560;19.090;2023-01-24T15:39:03;98220.09;;;0.19;100.00
68508;BME280;55510;49.560;19.090;2023-01-24T15:42:17;98218.69;;;0.14;100.00
68508;BME280;55510;49.560;19.090;2023-01-24T15:45:44;98228.06;;;0.17;100.00
68508;BME280;55510;49.560;19.090;2023-01-24T15:49:03;98224.75;;;0.15;100.00
68508;BME280;55510;49.560;19.090;2023-01-24T15:55:12;98222.22;;;0.04;100.00
68508;BME280;55510;49.560;19.090;2023-01-24T15:58:14;98217.94;;;0.03;100.00
68508;BME280;55510;49.560;19.090;2023-01-24T16:01:14;98225.28;;;0.09;100.00
68508;BME280;55510;49.560;19.090;2023-01-24T16:04:17;98218.78;;;0.03;100.00
68508;BME280;55510;49.560;19.090;2023-01-24T16:07:18;98226.44;;;-0.05;100.00
68508;BME280;55510;49.560;19.090;2023-01-24T16:10:20;98229.06;;;-0.05;100.00
68508;BME280;55510;49.560;19.090;2023-01-24T16:13:29;98228.38;;;-0.07;100.00
68508;BME280;55510;49.560;19.090;2023-01-24T16:16:32;98231.13;;;-0.09;100.00
68508;BME280;55510;49.560;19.090;2023-01-24T16:19:36;98230.44;;;-0.11;100.00
68508;BME280;55510;49.560;19.090;2023-01-24T16:22:36;98226.28;;;-0.13;100.00
68508;BME280;55510;49.560;19.090;2023-01-24T16:25:37;98230.28;;;-0.09;100.00
68508;BME280;55510;49.560;19.090;2023-01-24T16:28:38;98227.66;;;-0.09;100.00
68508;BME280;55510;49.560;19.090;2023-01-24T16:31:39;98231.50;;;-0.13;100.00
68508;BME280;55510;49.560;19.090;2023-01-24T16:34:40;98229.59;;;-0.11;100.00
68508;BME280;55510;49.560;19.090;2023-01-24T16:37:41;98233.75;;;-0.09;100.00
68508;BME280;55510;49.560;19.090;2023-01-24T16:40:42;98232.63;;;-0.06;100.00
68508;BME280;55510;49.560;19.090;2023-01-24T16:43:43;98226.16;;;-0.12;100.00
68508;BME280;55510;49.560;19.090;2023-01-24T16:46:49;98224.63;;;-0.15;100.00
68508;BME280;55510;49.560;19.090;2023-01-24T16:49:54;98230.16;;;-0.08;100.00
68508;BME280;55510;49.560;19.090;2023-01-24T16:52:56;98226.84;;;-0.10;100.00
68508;BME280;55510;49.560;19.090;2023-01-24T16:55:57;98231.50;;;-0.13;100.00
68508;BME280;55510;49.560;19.090;2023-01-24T16:59:01;98232.72;;;-0.18;100.00
68508;BME280;55510;49.560;19.090;2023-01-24T17:02:02;98239.06;;;-0.20;100.00
68508;BME280;55510;49.560;19.090;2023-01-24T17:05:03;98245.97;;;-0.19;100.00
68508;BME280;55510;49.560;19.090;2023-01-24T17:08:04;98244.41;;;-0.22;100.00
68508;BME280;55510;49.560;19.090;2023-01-24T17:11:08;98246.59;;;-0.27;100.00
68508;BME280;55510;49.560;19.090;2023-01-24T17:14:10;98253.75;;;-0.29;100.00
68508;BME280;55510;49.560;19.090;2023-01-24T17:17:11;98254.00;;;-0.32;100.00
68508;BME280;55510;49.560;19.090;2023-01-24T17:20:12;98240.47;;;-0.37;100.00
68508;BME280;55510;49.560;19.090;2023-01-24T17:23:13;98236.38;;;-0.30;100.00
68508;BME280;55510;49.560;19.090;2023-01-24T17:26:15;98247.81;;;-0.31;100.00
68508;BME280;55510;49.560;19.090;2023-01-24T17:29:17;98240.31;;;-0.36;100.00
68508;BME280;55510;49.560;19.090;2023-01-24T17:32:17;98231.66;;;-0.36;100.00
68508;BME280;55510;49.560;19.090;2023-01-24T17:35:18;98229.50;;;-0.31;100.00
68508;BME280;55510;49.560;19.090;2023-01-24T17:38:18;98232.81;;;-0.29;100.00
68508;BME280;55510;49.560;19.090;2023-01-24T17:41:21;98239.44;;;-0.25;100.00
68508;BME280;55510;49.560;19.090;2023-01-24T17:44:23;98233.63;;;-0.28;100.00
68508;BME280;55510;49.560;19.090;2023-01-24T17:47:27;98235.41;;;-0.29;100.00
68508;BME280;55510;49.560;19.090;2023-01-24T17:50:28;98232.22;;;-0.33;100.00
68508;BME280;55510;49.560;19.090;2023-01-24T17:53:28;98232.81;;;-0.29;100.00